Time,TemperatureF,DewpointF,PressureIn,WindDirection,WindDirectionDegrees,WindSpeedMPH,WindSpeedGustMPH,Humidity,HourlyPrecipIn,Conditions,Clouds,dailyrainin,SoftwareType,DateUTC
2013-02-24 00:00:00,42.6,34.6,29.85,ESE,109,0.0,0.0,73,0.00,,CLR,0.00,VWS V14.01,2013-02-24 08:00:00,
2013-02-24 00:10:00,42.6,35.3,29.85,ESE,109,0.0,0.0,75,0.00,,CLR,0.00,VWS V14.01,2013-02-24 08:10:00,
2013-02-24 00:20:00,42.4,35.1,29.85,ESE,109,0.0,0.0,75,0.00,,CLR,0.00,VWS V14.01,2013-02-24 08:20:00,
2013-02-24 00:30:00,42.4,35.4,29.85,ESE,109,0.0,0.0,76,0.00,,CLR,0.00,VWS V14.01,2013-02-24 08:30:00,
2013-02-24 00:40:00,42.3,35.2,29.85,ESE,108,0.0,0.0,76,0.00,,CLR,0.00,VWS V14.01,2013-02-24 08:40:00,
2013-02-24 00:50:00,42.6,35.9,29.85,ESE,109,0.0,0.0,77,0.00,,CLR,0.00,VWS V14.01,2013-02-24 08:50:00,
2013-02-24 01:00:00,42.1,34.7,29.85,ESE,109,0.0,0.0,75,0.00,,CLR,0.00,VWS V14.01,2013-02-24 09:00:00,
2013-02-24 01:10:00,42.1,35.1,29.85,ESE,108,0.0,0.0,76,0.00,,CLR,0.00,VWS V14.01,2013-02-24 09:10:00,
2013-02-24 01:20:00,42.4,35.8,29.85,SSW,192,0.0,0.0,77,0.00,,CLR,0.00,VWS V14.01,2013-02-24 09:20:00,
2013-02-24 01:30:00,42.8,36.1,29.85,SSW,192,0.0,0.0,77,0.00,,CLR,0.00,VWS V14.01,2013-02-24 09:30:00,
2013-02-24 01:40:00,42.3,35.6,29.85,South,181,0.0,0.0,77,0.00,,CLR,0.00,VWS V14.01,2013-02-24 09:40:00,
2013-02-24 01:50:00,41.5,34.9,29.85,South,181,0.0,0.0,77,0.00,,CLR,0.00,VWS V14.01,2013-02-24 09:50:00,
2013-02-24 02:00:00,41.2,34.8,29.85,South,181,0.0,0.0,78,0.00,,CLR,0.00,VWS V14.01,2013-02-24 10:00:00,
2013-02-24 02:10:00,41.0,34.7,29.85,SSE,150,0.0,0.0,78,0.00,,CLR,0.00,VWS V14.01,2013-02-24 10:10:00,
2013-02-24 02:20:00,41.0,34.7,29.85,SE,144,0.0,0.0,78,0.00,,CLR,0.00,VWS V14.01,2013-02-24 10:20:00,
2013-02-24 02:30:00,40.8,34.8,29.85,SE,144,0.0,0.0,79,0.00,,CLR,0.00,VWS V14.01,2013-02-24 10:30:00,
2013-02-24 02:40:00,39.6,33.3,29.85,WSW,244,0.0,0.0,78,0.00,,CLR,0.00,VWS V14.01,2013-02-24 10:40:00,
2013-02-24 02:50:00,39.2,33.2,29.85,East,100,0.0,0.0,79,0.00,,CLR,0.00,VWS V14.01,2013-02-24 10:50:00,
2013-02-24 03:00:00,39.2,33.6,29.83,East,100,0.0,0.0,80,0.00,,CLR,0.00,VWS V14.01,2013-02-24 11:00:00,
2013-02-24 03:10:00,39.9,34.9,29.83,East,101,0.0,0.0,82,0.00,,CLR,0.00,VWS V14.01,2013-02-24 11:10:00,
2013-02-24 03:20:00,40.3,35.5,29.83,ESE,115,0.0,0.0,83,0.00,,CLR,0.00,VWS V14.01,2013-02-24 11:20:00,
2013-02-24 03:30:00,39.9,34.9,29.83,ESE,115,0.0,0.0,82,0.00,,CLR,0.00,VWS V14.01,2013-02-24 11:30:00,
2013-02-24 03:40:00,39.9,34.9,29.83,ESE,116,0.0,0.0,82,0.00,,CLR,0.00,VWS V14.01,2013-02-24 11:40:00,
2013-02-24 03:50:00,40.1,35.1,29.83,ESE,116,0.0,0.0,82,0.00,,CLR,0.00,VWS V14.01,2013-02-24 11:50:00,
2013-02-24 04:00:00,39.9,34.9,29.83,ESE,116,0.0,0.0,82,0.00,,CLR,0.00,VWS V14.01,2013-02-24 12:00:00,
2013-02-24 04:10:00,39.7,34.7,29.83,ESE,116,0.0,0.0,82,0.00,,CLR,0.00,VWS V14.01,2013-02-24 12:10:00,
2013-02-24 04:20:00,39.4,34.3,29.83,ESE,112,0.0,0.0,82,0.00,,CLR,0.00,VWS V14.01,2013-02-24 12:20:00,
2013-02-24 04:40:00,37.4,31.8,29.83,SSW,211,0.0,0.0,80,0.00,,CLR,0.00,VWS V14.01,2013-02-24 12:40:00,
2013-02-24 04:50:00,37.2,32.2,29.83,SSE,157,0.0,0.0,82,0.00,,CLR,0.00,VWS V14.01,2013-02-24 12:50:00,
2013-02-24 05:00:00,37.6,32.9,29.83,East,97,0.0,0.0,83,0.00,,CLR,0.00,VWS V14.01,2013-02-24 13:00:00,
2013-02-24 05:10:00,38.1,34.0,29.83,East,97,0.0,0.0,85,0.00,,CLR,0.00,VWS V14.01,2013-02-24 13:10:00,
2013-02-24 05:20:00,38.3,34.5,29.83,East,97,0.0,0.0,86,0.00,,CLR,0.00,VWS V14.01,2013-02-24 13:20:00,
2013-02-24 05:30:00,38.3,34.5,29.85,East,97,0.0,0.0,86,0.00,,CLR,0.00,VWS V14.01,2013-02-24 13:30:00,
2013-02-24 05:40:00,38.1,34.0,29.85,East,97,0.0,0.0,85,0.00,,CLR,0.00,VWS V14.01,2013-02-24 13:40:00,
2013-02-24 05:50:00,37.0,32.7,29.85,SW,233,0.0,0.0,84,0.00,,CLR,0.00,VWS V14.01,2013-02-24 13:50:00,
2013-02-24 06:00:00,36.9,32.8,29.85,SE,139,0.0,0.0,85,0.00,,CLR,0.00,VWS V14.01,2013-02-24 14:00:00,
2013-02-24 06:10:00,37.0,33.2,29.85,SE,139,0.0,0.0,86,0.00,,CLR,0.00,VWS V14.01,2013-02-24 14:10:00,
2013-02-24 06:20:00,37.2,33.7,29.85,ESE,117,0.0,0.0,87,0.00,,CLR,0.00,VWS V14.01,2013-02-24 14:20:00,
2013-02-24 06:30:00,37.4,33.9,29.85,ESE,102,0.0,0.0,87,0.00,,CLR,0.00,VWS V14.01,2013-02-24 14:30:00,
2013-02-24 06:40:00,37.2,33.7,29.85,ESE,102,0.0,0.0,87,0.00,,CLR,0.00,VWS V14.01,2013-02-24 14:40:00,
2013-02-24 06:50:00,37.4,33.9,29.85,ESE,102,0.0,0.0,87,0.00,,CLR,0.00,VWS V14.01,2013-02-24 14:50:00,
2013-02-24 07:00:00,37.6,34.3,29.85,ESE,102,0.0,0.0,88,0.00,,CLR,0.00,VWS V14.01,2013-02-24 15:00:00,
2013-02-24 07:10:00,38.7,35.7,29.85,East,95,0.0,0.0,89,0.00,,CLR,0.00,VWS V14.01,2013-02-24 15:10:00,
2013-02-24 07:20:00,39.7,36.5,29.85,East,90,0.0,0.0,88,0.00,,CLR,0.00,VWS V14.01,2013-02-24 15:20:00,
2013-02-24 07:30:00,39.4,35.8,29.85,SW,234,0.0,0.0,87,0.00,,CLR,0.00,VWS V14.01,2013-02-24 15:30:00,
2013-02-24 07:40:00,41.2,37.6,29.85,SE,132,0.0,0.0,87,0.00,,CLR,0.00,VWS V14.01,2013-02-24 15:40:00,
2013-02-24 07:50:00,42.1,37.6,29.85,ESE,102,0.0,0.0,84,0.00,,SCT100,0.00,VWS V14.01,2013-02-24 15:50:00,
2013-02-24 08:00:00,42.8,37.4,29.85,East,96,0.0,0.0,81,0.00,,SCT100,0.00,VWS V14.01,2013-02-24 16:00:00,
2013-02-24 08:10:00,42.4,36.4,29.85,SW,234,0.0,0.0,79,0.00,,SCT100,0.00,VWS V14.01,2013-02-24 16:10:00,
2013-02-24 08:20:00,43.5,37.5,29.85,SW,235,0.0,0.0,79,0.00,,SCT100,0.00,VWS V14.01,2013-02-24 16:20:00,
2013-02-24 08:30:00,46.2,38.8,29.85,East,82,0.0,0.0,75,0.00,,SCT100,0.00,VWS V14.01,2013-02-24 16:30:00,
2013-02-24 08:40:00,47.3,37.3,29.85,ESE,118,0.0,0.0,68,0.00,,SCT100,0.00,VWS V14.01,2013-02-24 16:40:00,
2013-02-24 08:50:00,48.2,36.6,29.85,South,170,0.0,0.0,64,0.00,,SCT250,0.00,VWS V14.01,2013-02-24 16:50:00,
2013-02-24 09:00:00,48.4,35.2,29.85,SSW,209,3.1,4.9,60,0.00,,SCT250,0.00,VWS V14.01,2013-02-24 17:00:00,
2013-02-24 09:10:00,49.5,36.2,29.85,West,277,2.2,3.1,60,0.00,,SCT250,0.00,VWS V14.01,2013-02-24 17:10:00,
2013-02-24 09:20:00,49.6,36.3,29.85,SSW,206,3.6,3.6,60,0.00,,SCT250,0.00,VWS V14.01,2013-02-24 17:20:00,
2013-02-24 09:30:00,50.7,35.2,29.85,SSW,208,4.9,5.4,55,0.00,,SCT250,0.00,VWS V14.01,2013-02-24 17:30:00,
2013-02-24 09:40:00,51.6,35.1,29.85,SSW,199,0.0,4.9,53,0.00,,SCT250,0.00,VWS V14.01,2013-02-24 17:40:00,
2013-02-24 09:50:00,53.1,34.9,29.85,SSW,201,3.1,5.4,50,0.00,,SCT250,0.00,VWS V14.01,2013-02-24 17:50:00,
2013-02-24 10:00:00,53.6,34.4,29.85,SSW,199,3.1,5.4,48,0.00,,SCT250,0.00,VWS V14.01,2013-02-24 18:00:00,
2013-02-24 10:10:00,54.0,33.7,29.85,SSW,198,2.7,5.4,46,0.00,,SCT250,0.00,VWS V14.01,2013-02-24 18:10:00,
2013-02-24 10:20:00,54.3,32.9,29.85,WNW,292,0.0,4.9,44,0.00,,SCT250,0.00,VWS V14.01,2013-02-24 18:20:00,
2013-02-24 10:30:00,55.2,33.1,29.85,NW,315,0.0,3.1,43,0.00,,SCT250,0.00,VWS V14.01,2013-02-24 18:30:00,
2013-02-24 10:40:00,56.3,32.3,29.83,SSW,197,4.9,4.9,40,0.00,,SCT250,0.00,VWS V14.01,2013-02-24 18:40:00,
2013-02-24 10:50:00,57.4,32.7,29.83,SSW,194,0.0,5.8,39,0.00,,CLR,0.00,VWS V14.01,2013-02-24 18:50:00,
2013-02-24 11:00:00,57.9,32.5,29.83,SSW,207,3.1,5.8,38,0.00,,CLR,0.00,VWS V14.01,2013-02-24 19:00:00,
2013-02-24 11:10:00,58.3,32.8,29.83,SSW,204,0.0,4.9,38,0.00,,CLR,0.00,VWS V14.01,2013-02-24 19:10:00,
2013-02-24 11:20:00,58.5,32.3,29.83,SSW,197,3.1,6.3,37,0.00,,CLR,0.00,VWS V14.01,2013-02-24 19:20:00,
2013-02-24 11:30:00,59.5,33.9,29.83,South,191,0.0,4.9,38,0.00,,CLR,0.00,VWS V14.01,2013-02-24 19:30:00,
2013-02-24 11:40:00,60.4,34.1,29.83,SSW,194,0.0,0.0,37,0.00,,CLR,0.00,VWS V14.01,2013-02-24 19:40:00,
2013-02-24 11:50:00,61.0,33.9,29.83,SE,133,0.0,4.9,36,0.00,,CLR,0.00,VWS V14.01,2013-02-24 19:50:00,
2013-02-24 12:00:00,61.9,34.7,29.83,SSE,151,0.0,0.0,36,0.00,,CLR,0.00,VWS V14.01,2013-02-24 20:00:00,
2013-02-24 12:10:00,62.4,33.7,29.83,ESE,121,0.0,3.6,34,0.00,,CLR,0.00,VWS V14.01,2013-02-24 20:10:00,
2013-02-24 12:20:00,63.0,31.9,29.80,SSW,211,0.0,4.5,31,0.00,,CLR,0.00,VWS V14.01,2013-02-24 20:20:00,
2013-02-24 12:30:00,62.8,30.1,29.80,SSW,193,5.8,6.3,29,0.00,,CLR,0.00,VWS V14.01,2013-02-24 20:30:00,
2013-02-24 12:40:00,63.1,29.5,29.80,SSW,198,4.0,5.8,28,0.00,,CLR,0.00,VWS V14.01,2013-02-24 20:40:00,
2013-02-24 12:50:00,63.0,28.5,29.80,WSW,257,0.0,5.8,27,0.00,,CLR,0.00,VWS V14.01,2013-02-24 20:50:00,
2013-02-24 13:00:00,63.3,28.8,29.80,SSW,201,5.8,6.3,27,0.00,,CLR,0.00,VWS V14.01,2013-02-24 21:00:00,
2013-02-24 13:10:00,63.1,28.6,29.80,SSW,195,0.0,5.8,27,0.00,,CLR,0.00,VWS V14.01,2013-02-24 21:10:00,
2013-02-24 13:20:00,63.5,29.0,29.80,SSW,201,3.1,5.4,27,0.00,,CLR,0.00,VWS V14.01,2013-02-24 21:20:00,
2013-02-24 13:30:00,63.7,29.1,29.80,SSW,203,0.0,3.1,27,0.00,,CLR,0.00,VWS V14.01,2013-02-24 21:30:00,
2013-02-24 13:40:00,63.9,30.1,29.77,SSW,196,2.7,2.7,28,0.00,,CLR,0.00,VWS V14.01,2013-02-24 21:40:00,
2013-02-24 13:50:00,64.0,29.4,29.77,SSW,209,0.0,5.4,27,0.00,,SCT250,0.00,VWS V14.01,2013-02-24 21:50:00,
2013-02-24 14:00:00,64.4,29.7,29.77,SSW,213,0.0,0.0,27,0.00,,SCT250,0.00,VWS V14.01,2013-02-24 22:00:00,
2013-02-24 14:10:00,64.6,29.0,29.77,SW,224,0.0,0.0,26,0.00,,SCT250,0.00,VWS V14.01,2013-02-24 22:10:00,
2013-02-24 14:20:00,64.8,30.0,29.77,WSW,253,0.0,3.1,27,0.00,,SCT250,0.00,VWS V14.01,2013-02-24 22:20:00,
2013-02-24 14:30:00,65.7,37.3,29.77,ESE,116,0.0,3.6,35,0.00,,SCT250,0.00,VWS V14.01,2013-02-24 22:30:00,
2013-02-24 14:40:00,65.3,37.7,29.77,NNE,19,0.0,3.1,36,0.00,,SCT250,0.00,VWS V14.01,2013-02-24 22:40:00,
2013-02-24 14:50:00,64.9,37.4,29.77,NE,41,2.7,3.1,36,0.00,,SCT250,0.00,VWS V14.01,2013-02-24 22:50:00,
2013-02-24 15:00:00,64.4,36.9,29.74,NNE,29,0.0,3.6,36,0.00,,SCT250,0.00,VWS V14.01,2013-02-24 23:00:00,
2013-02-24 15:10:00,64.2,37.4,29.74,NNW,334,0.0,3.6,37,0.00,,SCT250,0.00,VWS V14.01,2013-02-24 23:10:00,
2013-02-24 15:20:00,64.2,37.4,29.74,NNE,26,0.0,2.2,37,0.00,,SCT250,0.00,VWS V14.01,2013-02-24 23:20:00,
2013-02-24 15:30:00,64.0,36.6,29.77,NW,307,0.0,0.0,36,0.00,,SCT250,0.00,VWS V14.01,2013-02-24 23:30:00,
2013-02-24 15:40:00,63.3,35.9,29.77,South,189,0.0,0.0,36,0.00,,SCT250,0.00,VWS V14.01,2013-02-24 23:40:00,
2013-02-24 15:50:00,63.0,35.6,29.74,ENE,68,0.0,0.0,36,0.00,,CLR,0.00,VWS V14.01,2013-02-24 23:50:00,
2013-02-24 16:00:00,62.6,35.3,29.74,East,80,0.0,0.0,36,0.00,,CLR,0.00,VWS V14.01,2013-02-25 00:00:00,
2013-02-24 16:10:00,62.2,35.0,29.74,East,93,0.0,0.0,36,0.00,,CLR,0.00,VWS V14.01,2013-02-25 00:10:00,
2013-02-24 16:20:00,61.7,34.5,29.74,East,81,0.0,0.0,36,0.00,,CLR,0.00,VWS V14.01,2013-02-25 00:20:00,
2013-02-24 16:30:00,61.2,34.0,29.74,South,190,0.0,0.0,36,0.00,,CLR,0.00,VWS V14.01,2013-02-25 00:30:00,
2013-02-24 16:40:00,60.8,33.7,29.74,SE,129,0.0,0.0,36,0.00,,CLR,0.00,VWS V14.01,2013-02-25 00:40:00,
2013-02-24 16:50:00,60.4,34.1,29.74,ESE,114,0.0,0.0,37,0.00,,CLR,0.00,VWS V14.01,2013-02-25 00:50:00,
2013-02-24 17:00:00,59.5,33.3,29.74,ESE,109,0.0,0.0,37,0.00,,CLR,0.00,VWS V14.01,2013-02-25 01:00:00,
2013-02-24 17:10:00,59.2,33.0,29.74,ESE,106,0.0,0.0,37,0.00,,CLR,0.00,VWS V14.01,2013-02-25 01:10:00,
2013-02-24 17:20:00,58.6,33.1,29.74,ESE,106,0.0,0.0,38,0.00,,CLR,0.00,VWS V14.01,2013-02-25 01:20:00,
2013-02-24 17:30:00,58.5,33.0,29.74,ESE,106,0.0,0.0,38,0.00,,CLR,0.00,VWS V14.01,2013-02-25 01:30:00,
2013-02-24 17:40:00,57.6,32.8,29.74,ESE,106,0.0,0.0,39,0.00,,CLR,0.00,VWS V14.01,2013-02-25 01:40:00,
2013-02-24 17:50:00,57.0,33.0,29.74,ESE,106,0.0,0.0,40,0.00,,SCT250,0.00,VWS V14.01,2013-02-25 01:50:00,
2013-02-24 18:00:00,56.3,33.5,29.74,ESE,106,0.0,0.0,42,0.00,,SCT250,0.00,VWS V14.01,2013-02-25 02:00:00,
2013-02-24 18:10:00,55.8,33.6,29.74,ESE,106,0.0,0.0,43,0.00,,SCT250,0.00,VWS V14.01,2013-02-25 02:10:00,
2013-02-24 18:20:00,54.7,34.9,29.74,ESE,106,0.0,0.0,47,0.00,,SCT250,0.00,VWS V14.01,2013-02-25 02:20:00,
2013-02-24 18:30:00,53.8,35.6,29.74,ESE,106,0.0,0.0,50,0.00,,SCT250,0.00,VWS V14.01,2013-02-25 02:30:00,
2013-02-24 18:40:00,53.6,35.9,29.74,ESE,106,0.0,0.0,51,0.00,,SCT250,0.00,VWS V14.01,2013-02-25 02:40:00,
2013-02-24 18:50:00,52.9,35.8,29.74,ESE,105,0.0,0.0,52,0.00,,SCT250,0.00,VWS V14.01,2013-02-25 02:50:00,
2013-02-24 19:00:00,52.3,35.7,29.77,ESE,106,0.0,0.0,53,0.00,,SCT250,0.00,VWS V14.01,2013-02-25 03:00:00,
2013-02-24 19:10:00,52.0,35.4,29.77,ESE,106,0.0,0.0,53,0.00,,SCT250,0.00,VWS V14.01,2013-02-25 03:10:00,
2013-02-24 19:50:00,50.2,36.8,29.77,ESE,106,0.0,0.0,60,0.00,,CLR,0.00,VWS V14.01,2013-02-25 03:50:00,
2013-02-24 20:00:00,49.6,37.2,29.77,ESE,106,0.0,0.0,62,0.00,,CLR,0.00,VWS V14.01,2013-02-25 04:00:00,
2013-02-24 20:10:00,49.1,37.1,29.77,ESE,106,0.0,0.0,63,0.00,,CLR,0.00,VWS V14.01,2013-02-25 04:10:00,
2013-02-24 20:20:00,48.7,37.1,29.77,ESE,106,0.0,0.0,64,0.00,,CLR,0.00,VWS V14.01,2013-02-25 04:20:00,
2013-02-24 20:30:00,48.4,37.2,29.77,ESE,106,0.0,0.0,65,0.00,,CLR,0.00,VWS V14.01,2013-02-25 04:30:00,
2013-02-24 20:40:00,48.0,36.8,29.77,ESE,106,0.0,0.0,65,0.00,,CLR,0.00,VWS V14.01,2013-02-25 04:40:00,
2013-02-24 20:50:00,47.7,36.1,29.77,ESE,106,0.0,0.0,64,0.00,,CLR,0.00,VWS V14.01,2013-02-25 04:50:00,
2013-02-24 21:00:00,47.5,36.7,29.80,ESE,106,0.0,0.0,66,0.00,,CLR,0.00,VWS V14.01,2013-02-25 05:00:00,
2013-02-24 21:10:00,47.3,36.9,29.80,ESE,106,0.0,0.0,67,0.00,,CLR,0.00,VWS V14.01,2013-02-25 05:10:00,
2013-02-24 21:20:00,47.1,37.5,29.80,ESE,106,0.0,0.0,69,0.00,,CLR,0.00,VWS V14.01,2013-02-25 05:20:00,
2013-02-24 21:30:00,46.9,37.7,29.80,ESE,106,0.0,0.0,70,0.00,,CLR,0.00,VWS V14.01,2013-02-25 05:30:00,
2013-02-24 21:40:00,46.8,38.2,29.80,ESE,106,0.0,0.0,72,0.00,,CLR,0.00,VWS V14.01,2013-02-25 05:40:00,
2013-02-24 21:50:00,46.4,37.9,29.80,ESE,106,0.0,0.0,72,0.00,,CLR,0.00,VWS V14.01,2013-02-25 05:50:00,
2013-02-24 22:00:00,46.0,37.9,29.80,ESE,106,0.0,0.0,73,0.00,,CLR,0.00,VWS V14.01,2013-02-25 06:00:00,
2013-02-24 22:10:00,46.0,38.2,29.80,ESE,106,0.0,0.0,74,0.00,,CLR,0.00,VWS V14.01,2013-02-25 06:10:00,
2013-02-24 22:20:00,46.2,38.8,29.80,ESE,106,0.0,0.0,75,0.00,,CLR,0.00,VWS V14.01,2013-02-25 06:20:00,
2013-02-24 22:30:00,46.2,39.1,29.80,ESE,105,0.0,0.0,76,0.00,,CLR,0.00,VWS V14.01,2013-02-25 06:30:00,
2013-02-24 22:40:00,46.0,39.2,29.80,ESE,105,0.0,0.0,77,0.00,,CLR,0.00,VWS V14.01,2013-02-25 06:40:00,
2013-02-24 22:50:00,45.9,39.1,29.83,ESE,105,0.0,0.0,77,0.00,,CLR,0.00,VWS V14.01,2013-02-25 06:50:00,
2013-02-24 23:00:00,45.7,38.9,29.83,ESE,105,0.0,0.0,77,0.00,,CLR,0.00,VWS V14.01,2013-02-25 07:00:00,
2013-02-24 23:10:00,45.1,38.4,29.83,ESE,105,0.0,0.0,77,0.00,,CLR,0.00,VWS V14.01,2013-02-25 07:10:00,
2013-02-24 23:20:00,45.1,38.7,29.83,ESE,105,0.0,0.0,78,0.00,,CLR,0.00,VWS V14.01,2013-02-25 07:20:00,
2013-02-24 23:30:00,45.0,38.5,29.83,ESE,105,0.0,0.0,78,0.00,,CLR,0.00,VWS V14.01,2013-02-25 07:30:00,
2013-02-24 23:40:00,44.2,38.2,29.83,ESE,105,0.0,0.0,79,0.00,,CLR,0.00,VWS V14.01,2013-02-25 07:40:00,
2013-02-24 23:50:00,44.1,38.0,29.83,ESE,105,0.0,0.0,79,0.00,,CLR,0.00,VWS V14.01,2013-02-25 07:50:00,